Time;durP1;ratioP1;P1;durP2;ratioP2;P2;SDS_P1;SDS_P2;PMS_P1;PMS_P2;Temp;Humidity;BMP_temperature;BMP_pressure;BME280_temperature;BME280_humidity;BME280_pressure;Samples;Min_cycle;Max_cycle;Signal;HPM_P1;HPM_P2
2022/01/18 00:00:14;;;;;;;;;;;19.80;40.00;;;;;;5030767;28;19975;-67
2022/01/18 00:02:39;;;;;;;;;;;19.80;40.10;;;;;;5065308;28;19955;-67
2022/01/18 00:05:06;;;;;;;;;;;19.70;40.00;;;;;;5073381;28;19923;-67
2022/01/18 00:07:31;;;;;;;;;;;19.80;40.00;;;;;;5073331;28;19908;-67
2022/01/18 00:09:57;;;;;;;;;;;19.70;40.00;;;;;;5055135;28;19915;-67
2022/01/18 00:12:43;;;;;;;;;;;19.70;40.00;;;;;;5073069;28;20349;-67
2022/01/18 00:20:48;;;;;;;;;;;19.70;40.20;;;;;;5073326;28;20356;-67
2022/01/18 00:23:14;;;;;;;;;;;19.70;40.10;;;;;;5072114;28;20006;-67
2022/01/18 00:25:43;;;;;;;;;;;19.70;40.20;;;;;;5072915;28;19916;-67
2022/01/18 00:28:09;;;;;;;;;;;19.70;40.10;;;;;;5054993;28;19908;-67
2022/01/18 00:35:45;;;;;;;;;;;19.70;40.10;;;;;;5073148;28;19908;-67
2022/01/18 00:38:17;;;;;;;;;;;19.70;40.20;;;;;;5073097;28;19915;-67
2022/01/18 00:40:43;;;;;;;;;;;19.70;40.20;;;;;;5072830;28;19909;-67
2022/01/18 00:43:08;;;;;;;;;;;19.70;40.20;;;;;;5072656;28;19917;-67
2022/01/18 00:45:33;;;;;;;;;;;19.70;40.10;;;;;;5074392;28;20322;-67
2022/01/18 00:48:01;;;;;;;;;;;19.70;40.10;;;;;;5076679;28;19908;-67
2022/01/18 00:50:30;;;;;;;;;;;19.70;40.10;;;;;;5076449;28;19909;-67
2022/01/18 00:52:56;;;;;;;;;;;19.70;40.10;;;;;;5058462;28;20371;-67
2022/01/18 00:55:23;;;;;;;;;;;19.70;40.10;;;;;;5076450;28;19915;-67
2022/01/18 00:57:48;;;;;;;;;;;19.70;40.10;;;;;;5058447;28;20360;-67
2022/01/18 01:00:14;;;;;;;;;;;19.70;40.10;;;;;;5054821;28;19966;-67
2022/01/18 01:02:39;;;;;;;;;;;19.70;40.00;;;;;;5056114;28;19920;-67
2022/01/18 01:05:05;;;;;;;;;;;19.70;40.10;;;;;;5056191;28;20008;-67
2022/01/18 01:07:30;;;;;;;;;;;19.70;40.10;;;;;;5056053;28;20361;-67
2022/01/18 01:09:55;;;;;;;;;;;19.70;40.10;;;;;;5056087;28;19930;-67
2022/01/18 01:12:24;;;;;;;;;;;19.70;40.00;;;;;;5056212;28;19955;-67
2022/01/18 01:14:52;;;;;;;;;;;19.70;40.10;;;;;;5056059;28;20272;-67
2022/01/18 01:34:03;;;;;;;;;;;19.60;40.30;;;;;;5055842;28;19931;-67
2022/01/18 01:46:36;;;;;;;;;;;19.60;40.20;;;;;;5055427;28;19908;-67
2022/01/18 01:49:05;;;;;;;;;;;19.60;40.20;;;;;;5055384;28;19970;-67
2022/01/18 01:51:31;;;;;;;;;;;19.60;40.20;;;;;;5055457;28;19909;-67
2022/01/18 01:54:00;;;;;;;;;;;19.60;40.20;;;;;;5055281;28;19915;-67
2022/01/18 01:56:26;;;;;;;;;;;19.60;40.30;;;;;;5055269;28;19909;-67
2022/01/18 01:58:52;;;;;;;;;;;19.60;40.20;;;;;;5055122;28;19908;-67
2022/01/18 02:01:17;;;;;;;;;;;19.60;40.20;;;;;;5074869;28;19920;-67
2022/01/18 02:03:43;;;;;;;;;;;19.60;40.20;;;;;;5075035;28;19916;-67
2022/01/18 02:06:08;;;;;;;;;;;19.60;40.30;;;;;;5075060;28;19909;-67
2022/01/18 02:08:34;;;;;;;;;;;19.60;40.30;;;;;;5075027;28;19933;-67
2022/01/18 02:10:59;;;;;;;;;;;19.60;40.30;;;;;;5074957;28;19946;-67
2022/01/18 02:13:25;;;;;;;;;;;19.60;40.30;;;;;;5074822;28;19966;-67
2022/01/18 02:23:56;;;;;;;;;;;19.60;40.30;;;;;;5074676;28;19923;-67
2022/01/18 02:26:21;;;;;;;;;;;19.60;40.20;;;;;;5074618;28;19909;-67
2022/01/18 02:28:47;;;;;;;;;;;19.60;40.30;;;;;;5074842;28;19931;-67
2022/01/18 02:31:12;;;;;;;;;;;19.60;40.30;;;;;;5074566;28;20311;-67
2022/01/18 02:33:38;;;;;;;;;;;19.60;40.30;;;;;;5074514;28;20346;-67
2022/01/18 02:36:06;;;;;;;;;;;19.60;40.20;;;;;;5074444;28;19909;-67
2022/01/18 02:38:31;;;;;;;;;;;19.60;40.30;;;;;;5074314;28;19908;-68
2022/01/18 02:40:58;;;;;;;;;;;19.60;40.30;;;;;;5074362;28;19908;-67
2022/01/18 02:46:07;;;;;;;;;;;19.60;40.30;;;;;;5074367;28;19931;-67
2022/01/18 02:48:33;;;;;;;;;;;19.60;40.30;;;;;;5074196;28;19909;-67
2022/01/18 02:50:58;;;;;;;;;;;19.60;40.30;;;;;;5074165;28;19909;-67
2022/01/18 02:53:24;;;;;;;;;;;19.60;40.30;;;;;;5074419;28;19947;-67
2022/01/18 02:55:53;;;;;;;;;;;19.60;40.20;;;;;;5074310;28;19915;-67
2022/01/18 02:58:27;;;;;;;;;;;19.60;40.30;;;;;;5074011;28;20003;-67
2022/01/18 03:03:34;;;;;;;;;;;19.60;40.30;;;;;;5073872;28;19942;-67
2022/01/18 03:06:05;;;;;;;;;;;19.60;40.30;;;;;;5073123;28;22261;-67
2022/01/18 03:08:31;;;;;;;;;;;19.60;40.30;;;;;;5073392;28;19908;-67
2022/01/18 03:10:57;;;;;;;;;;;19.60;40.40;;;;;;5073762;28;19909;-67
2022/01/18 03:13:23;;;;;;;;;;;19.60;40.30;;;;;;5055868;28;19909;-67
2022/01/18 03:15:49;;;;;;;;;;;19.50;40.30;;;;;;5072362;28;20310;-66
2022/01/18 03:18:14;;;;;;;;;;;19.50;40.30;;;;;;5073678;28;19914;-67
2022/01/18 03:20:40;;;;;;;;;;;19.60;40.30;;;;;;5073690;28;19954;-67
2022/01/18 03:23:10;;;;;;;;;;;19.50;40.30;;;;;;5073721;28;19956;-67
2022/01/18 03:28:07;;;;;;;;;;;19.50;40.30;;;;;;5073838;28;19915;-67
2022/01/18 03:30:33;;;;;;;;;;;19.50;40.30;;;;;;5073595;28;19912;-67
2022/01/18 03:32:58;;;;;;;;;;;19.50;40.40;;;;;;5073530;28;20356;-67
2022/01/18 03:35:24;;;;;;;;;;;19.60;40.30;;;;;;5073508;28;19908;-67
2022/01/18 03:37:50;;;;;;;;;;;19.50;40.30;;;;;;5073492;28;19913;-67
2022/01/18 03:40:16;;;;;;;;;;;19.50;40.30;;;;;;5073455;28;19920;-67
2022/01/18 03:42:43;;;;;;;;;;;19.60;40.30;;;;;;5073354;28;19999;-67
2022/01/18 03:45:10;;;;;;;;;;;19.50;40.30;;;;;;5073373;28;19989;-67
2022/01/18 03:47:36;;;;;;;;;;;19.60;40.30;;;;;;5073398;28;19963;-67
2022/01/18 03:50:02;;;;;;;;;;;19.50;40.30;;;;;;5073332;28;19908;-67
2022/01/18 03:52:28;;;;;;;;;;;19.60;40.30;;;;;;5073602;28;19909;-67
2022/01/18 03:54:54;;;;;;;;;;;19.50;40.40;;;;;;5073275;28;19954;-67
2022/01/18 03:57:20;;;;;;;;;;;19.50;40.40;;;;;;5073238;28;19951;-67
2022/01/18 03:59:46;;;;;;;;;;;19.50;40.40;;;;;;5072985;28;19960;-67
2022/01/18 04:02:12;;;;;;;;;;;19.50;40.40;;;;;;5073153;28;19916;-67
2022/01/18 04:04:37;;;;;;;;;;;19.50;40.40;;;;;;5073200;28;20332;-67
2022/01/18 04:07:03;;;;;;;;;;;19.50;40.40;;;;;;5073188;28;19909;-67
2022/01/18 04:09:29;;;;;;;;;;;19.50;40.40;;;;;;5073179;28;19970;-67
2022/01/18 04:11:55;;;;;;;;;;;19.50;40.40;;;;;;5073143;28;19955;-67
2022/01/18 04:14:20;;;;;;;;;;;19.50;40.30;;;;;;5073101;28;19974;-67
2022/01/18 04:27:49;;;;;;;;;;;19.50;40.40;;;;;;5077280;28;20378;-67
2022/01/18 04:30:15;;;;;;;;;;;19.50;40.30;;;;;;5076920;28;19969;-67
2022/01/18 04:32:40;;;;;;;;;;;19.50;40.40;;;;;;5076823;28;20364;-67
2022/01/18 04:35:06;;;;;;;;;;;19.50;40.30;;;;;;5076732;28;20280;-67
2022/01/18 04:37:31;;;;;;;;;;;19.50;40.40;;;;;;5076765;28;19974;-67
2022/01/18 04:39:58;;;;;;;;;;;19.50;40.30;;;;;;5076718;28;19909;-66
2022/01/18 04:42:41;;;;;;;;;;;19.50;40.30;;;;;;5058633;28;20303;-67
2022/01/18 04:50:35;;;;;;;;;;;19.50;40.40;;;;;;5076555;28;19919;-67
2022/01/18 04:53:00;;;;;;;;;;;19.50;40.40;;;;;;5058491;28;20318;-67
2022/01/18 04:55:31;;;;;;;;;;;19.50;40.40;;;;;;5076419;28;19909;-68
2022/01/18 04:57:57;;;;;;;;;;;19.50;40.40;;;;;;5076350;28;20348;-67
2022/01/18 05:00:23;;;;;;;;;;;19.50;40.40;;;;;;5076171;28;20008;-67
2022/01/18 05:02:49;;;;;;;;;;;19.50;40.30;;;;;;5076258;28;19964;-67
2022/01/18 05:05:23;;;;;;;;;;;19.50;40.40;;;;;;5076217;28;19915;-67
2022/01/18 05:07:50;;;;;;;;;;;19.50;40.30;;;;;;5076395;28;20249;-68
2022/01/18 05:10:19;;;;;;;;;;;19.50;40.40;;;;;;5076082;28;20304;-68
2022/01/18 05:12:47;;;;;;;;;;;19.50;40.30;;;;;;5076309;28;19931;-67
2022/01/18 05:15:38;;;;;;;;;;;19.50;40.20;;;;;;5076126;28;19912;-67
2022/01/18 05:20:55;;;;;;;;;;;19.50;40.20;;;;;;5076113;28;20007;-67
2022/01/18 05:23:21;;;;;;;;;;;19.60;40.20;;;;;;5075917;28;20356;-67
2022/01/18 05:25:46;;;;;;;;;;;19.60;40.20;;;;;;5074521;28;19909;-67
2022/01/18 05:28:12;;;;;;;;;;;19.60;40.10;;;;;;5057803;28;19916;-67
2022/01/18 05:30:38;;;;;;;;;;;19.70;40.20;;;;;;5075350;28;19916;-67
2022/01/18 05:33:04;;;;;;;;;;;19.70;40.20;;;;;;5075557;28;19908;-67
2022/01/18 05:35:29;;;;;;;;;;;19.70;40.10;;;;;;5075637;28;19942;-67
2022/01/18 05:37:54;;;;;;;;;;;19.70;40.10;;;;;;5075692;28;19947;-67
2022/01/18 05:40:20;;;;;;;;;;;19.70;40.10;;;;;;5075622;28;19909;-67
2022/01/18 05:42:46;;;;;;;;;;;19.70;40.10;;;;;;5075452;28;19927;-67
2022/01/18 05:45:12;;;;;;;;;;;19.80;40.10;;;;;;5075516;28;19912;-67
2022/01/18 05:47:38;;;;;;;;;;;19.80;40.10;;;;;;5075477;28;19916;-67
2022/01/18 05:50:04;;;;;;;;;;;19.80;40.10;;;;;;5075385;28;19923;-67
2022/01/18 05:52:30;;;;;;;;;;;19.80;40.10;;;;;;5074108;28;19909;-67
2022/01/18 05:54:55;;;;;;;;;;;19.80;40.10;;;;;;5075273;28;19916;-66
2022/01/18 05:57:20;;;;;;;;;;;19.80;40.10;;;;;;5075299;28;20367;-67
2022/01/18 05:59:47;;;;;;;;;;;19.80;40.10;;;;;;5073749;28;20430;-67
2022/01/18 06:02:16;;;;;;;;;;;19.80;40.10;;;;;;5075169;28;19908;-67
2022/01/18 06:07:26;;;;;;;;;;;19.80;40.10;;;;;;5075153;28;19943;-67
2022/01/18 06:09:53;;;;;;;;;;;19.80;40.10;;;;;;5075095;28;20031;-68
2022/01/18 06:12:28;;;;;;;;;;;19.80;40.10;;;;;;5073780;28;20424;-67
2022/01/18 06:14:53;;;;;;;;;;;19.90;40.10;;;;;;5074962;28;19909;-67
2022/01/18 06:17:19;;;;;;;;;;;19.80;40.10;;;;;;5074833;28;20287;-67
2022/01/18 06:19:44;;;;;;;;;;;19.80;40.10;;;;;;5074816;28;20001;-67
2022/01/18 06:22:10;;;;;;;;;;;19.80;40.10;;;;;;5073332;28;19915;-67
2022/01/18 06:24:35;;;;;;;;;;;19.90;40.00;;;;;;5074508;28;19924;-67
2022/01/18 06:27:01;;;;;;;;;;;19.80;40.00;;;;;;5074645;28;19908;-67
2022/01/18 06:29:26;;;;;;;;;;;19.90;40.10;;;;;;5074887;28;19908;-67
2022/01/18 06:31:52;;;;;;;;;;;19.90;40.00;;;;;;5074512;28;19909;-67
2022/01/18 06:34:17;;;;;;;;;;;19.90;40.00;;;;;;5074469;28;19909;-67
2022/01/18 06:36:43;;;;;;;;;;;19.90;40.00;;;;;;5074448;28;19938;-67
2022/01/18 06:39:09;;;;;;;;;;;19.90;40.10;;;;;;5056513;28;19958;-67
2022/01/18 06:41:35;;;;;;;;;;;19.90;40.00;;;;;;5074370;28;19909;-67
2022/01/18 06:44:00;;;;;;;;;;;19.90;40.00;;;;;;5073415;28;19917;-67
2022/01/18 06:46:26;;;;;;;;;;;19.90;40.00;;;;;;5074363;28;20314;-67
2022/01/18 06:48:51;;;;;;;;;;;19.90;40.00;;;;;;5074185;28;19944;-68
2022/01/18 06:51:17;;;;;;;;;;;19.90;40.00;;;;;;5074158;28;19908;-67
2022/01/18 06:53:47;;;;;;;;;;;19.90;40.00;;;;;;5074103;28;20375;-67
2022/01/18 06:56:16;;;;;;;;;;;19.90;40.10;;;;;;5074310;28;20279;-67
2022/01/18 06:58:42;;;;;;;;;;;19.90;40.10;;;;;;5074026;28;19973;-66
2022/01/18 07:01:08;;;;;;;;;;;19.90;40.10;;;;;;5073848;28;19924;-67
2022/01/18 07:03:34;;;;;;;;;;;19.90;40.10;;;;;;5073929;28;20277;-67
2022/01/18 07:05:59;;;;;;;;;;;19.90;40.10;;;;;;5073887;28;19908;-67
2022/01/18 07:08:25;;;;;;;;;;;19.90;40.00;;;;;;5055931;28;19952;-67
2022/01/18 07:10:50;;;;;;;;;;;19.90;40.10;;;;;;5073830;28;19991;-68
2022/01/18 07:13:16;;;;;;;;;;;19.90;40.10;;;;;;5073804;28;19909;-67
2022/01/18 07:15:41;;;;;;;;;;;19.90;40.10;;;;;;5071646;28;20702;-66
2022/01/18 07:18:07;;;;;;;;;;;19.90;40.10;;;;;;5083498;28;19916;-66
2022/01/18 07:20:33;;;;;;;;;;;20.00;39.90;;;;;;5092727;28;19912;-65
2022/01/18 07:22:58;;;;;;;;;;;20.00;40.00;;;;;;5084514;28;19912;-65
2022/01/18 07:25:26;;;;;;;;;;;20.00;40.10;;;;;;5092624;28;19912;-67
2022/01/18 07:27:51;;;;;;;;;;;20.00;40.00;;;;;;5092825;28;20089;-65
2022/01/18 07:30:17;;;;;;;;;;;20.00;40.10;;;;;;5092858;28;19957;-66
2022/01/18 07:32:43;;;;;;;;;;;20.00;40.20;;;;;;5074765;28;20279;-66
2022/01/18 07:35:09;;;;;;;;;;;20.00;40.20;;;;;;5092328;28;20324;-66
2022/01/18 07:37:34;;;;;;;;;;;20.00;40.20;;;;;;5092748;28;19955;-67
2022/01/18 07:40:00;;;;;;;;;;;20.00;40.30;;;;;;5092577;28;19955;-66
2022/01/18 07:42:25;;;;;;;;;;;20.00;40.30;;;;;;5092594;28;19920;-66
2022/01/18 07:44:51;;;;;;;;;;;20.00;40.30;;;;;;5092534;28;19920;-66
2022/01/18 07:47:17;;;;;;;;;;;20.00;40.30;;;;;;5092707;28;19920;-67
2022/01/18 07:49:42;;;;;;;;;;;20.00;40.40;;;;;;5092449;28;19982;-67
2022/01/18 07:52:08;;;;;;;;;;;20.00;40.40;;;;;;5092656;28;19908;-65
2022/01/18 07:54:33;;;;;;;;;;;20.00;40.30;;;;;;5090083;28;20002;-67
2022/01/18 07:56:59;;;;;;;;;;;20.00;40.20;;;;;;5092391;28;19908;-67
2022/01/18 07:59:27;;;;;;;;;;;20.00;40.30;;;;;;5073286;28;19923;-67
2022/01/18 08:01:53;;;;;;;;;;;20.00;40.40;;;;;;5091913;28;20291;-65
2022/01/18 08:04:18;;;;;;;;;;;20.00;40.40;;;;;;5091338;28;19966;-66
2022/01/18 08:06:43;;;;;;;;;;;20.00;40.40;;;;;;5092286;28;19908;-63
2022/01/18 08:09:09;;;;;;;;;;;20.00;40.40;;;;;;5091642;28;20057;-66
2022/01/18 08:11:34;;;;;;;;;;;20.10;40.30;;;;;;5092725;28;20544;-66
2022/01/18 08:14:01;;;;;;;;;;;20.10;40.30;;;;;;5090500;28;19999;-65
2022/01/18 08:18:53;;;;;;;;;;;20.10;40.40;;;;;;5090161;28;19923;-67
2022/01/18 08:21:18;;;;;;;;;;;20.20;40.40;;;;;;5074544;28;19963;-68
2022/01/18 08:23:44;;;;;;;;;;;20.10;40.50;;;;;;5082158;28;20037;-66
2022/01/18 08:26:09;;;;;;;;;;;20.20;40.50;;;;;;5090073;28;19912;-67
2022/01/18 08:28:34;;;;;;;;;;;20.20;40.40;;;;;;5090117;28;19914;-66
2022/01/18 08:31:00;;;;;;;;;;;20.20;40.50;;;;;;5090743;28;19981;-66
2022/01/18 08:33:25;;;;;;;;;;;20.20;40.60;;;;;;5091585;28;19912;-66
2022/01/18 08:35:51;;;;;;;;;;;20.20;40.60;;;;;;5091854;28;19912;-66
2022/01/18 08:38:17;;;;;;;;;;;20.10;40.60;;;;;;5091845;28;19916;-66
2022/01/18 08:40:42;;;;;;;;;;;20.20;40.70;;;;;;5092175;28;19954;-65
2022/01/18 08:43:11;;;;;;;;;;;20.20;40.70;;;;;;5073798;28;19956;-67
2022/01/18 08:45:36;;;;;;;;;;;20.20;40.70;;;;;;5091955;28;19966;-65
2022/01/18 08:48:02;;;;;;;;;;;20.20;40.60;;;;;;5091852;28;19912;-67
2022/01/18 08:50:28;;;;;;;;;;;20.20;40.70;;;;;;5090995;28;19916;-65
2022/01/18 08:52:53;;;;;;;;;;;20.20;40.70;;;;;;5092381;28;20465;-67
2022/01/18 08:55:20;;;;;;;;;;;20.20;40.70;;;;;;5074029;28;19995;-66
2022/01/18 08:57:46;;;;;;;;;;;20.20;40.80;;;;;;5091921;28;19912;-67
2022/01/18 09:00:12;;;;;;;;;;;20.10;41.00;;;;;;5091533;28;19920;-70
2022/01/18 09:02:38;;;;;;;;;;;20.10;41.00;;;;;;5091118;28;19912;-67
2022/01/18 09:05:04;;;;;;;;;;;20.10;40.90;;;;;;5091798;28;19912;-68
2022/01/18 09:07:31;;;;;;;;;;;20.20;40.80;;;;;;5094410;28;19987;-66
2022/01/18 09:10:03;;;;;;;;;;;20.20;40.90;;;;;;5055818;28;19919;-63
2022/01/18 09:12:29;;;;;;;;;;;20.20;41.10;;;;;;5057419;28;19912;-65
2022/01/18 09:14:54;;;;;;;;;;;20.30;40.90;;;;;;5086644;28;19917;-65
2022/01/18 09:17:20;;;;;;;;;;;20.30;40.90;;;;;;5094898;28;19912;-65
2022/01/18 09:19:45;;;;;;;;;;;20.20;40.90;;;;;;5093928;28;19977;-65
2022/01/18 09:22:11;;;;;;;;;;;20.30;40.90;;;;;;5094849;28;19990;-65
2022/01/18 09:24:36;;;;;;;;;;;20.30;41.00;;;;;;5076007;28;19930;-65
2022/01/18 09:27:02;;;;;;;;;;;20.30;40.90;;;;;;5094922;28;19908;-65
2022/01/18 09:29:29;;;;;;;;;;;20.30;40.90;;;;;;5094335;28;19962;-67
2022/01/18 09:31:54;;;;;;;;;;;20.30;40.90;;;;;;5094421;28;20015;-66
2022/01/18 09:34:19;;;;;;;;;;;20.30;40.90;;;;;;5094797;28;20015;-67
2022/01/18 09:36:45;;;;;;;;;;;20.30;40.90;;;;;;5094783;28;19912;-66
2022/01/18 09:39:11;;;;;;;;;;;20.30;40.90;;;;;;5094990;28;19934;-65
2022/01/18 09:41:40;;;;;;;;;;;20.30;40.90;;;;;;5095432;28;19995;-66
2022/01/18 09:44:06;;;;;;;;;;;20.30;40.90;;;;;;5095094;28;20258;-65
2022/01/18 09:46:32;;;;;;;;;;;20.30;40.90;;;;;;5095389;28;19908;-65
2022/01/18 09:48:58;;;;;;;;;;;20.30;40.90;;;;;;5094322;28;19961;-65
2022/01/18 09:51:24;;;;;;;;;;;20.40;41.00;;;;;;5094674;28;20042;-66
2022/01/18 09:53:50;;;;;;;;;;;20.30;40.90;;;;;;5076729;28;19926;-64
2022/01/18 09:56:16;;;;;;;;;;;20.30;40.90;;;;;;5094713;28;19908;-64
2022/01/18 09:58:42;;;;;;;;;;;20.30;40.90;;;;;;5076015;28;20014;-65
2022/01/18 10:01:07;;;;;;;;;;;20.30;41.00;;;;;;5094260;28;20182;-66
2022/01/18 10:03:34;;;;;;;;;;;20.30;41.00;;;;;;5094116;28;19954;-65
2022/01/18 10:06:00;;;;;;;;;;;20.30;41.00;;;;;;5094666;28;19908;-67
2022/01/18 10:08:26;;;;;;;;;;;20.40;41.00;;;;;;5093706;28;19923;-66
2022/01/18 10:10:53;;;;;;;;;;;20.40;41.00;;;;;;5087107;28;19999;-66
2022/01/18 10:13:21;;;;;;;;;;;20.40;41.00;;;;;;5074387;28;19923;-66
2022/01/18 10:16:16;;;;;;;;;;;20.40;41.00;;;;;;5093135;28;19908;-65
2022/01/18 10:18:48;;;;;;;;;;;20.40;41.00;;;;;;5079296;28;19954;-65
2022/01/18 10:21:34;;;;;;;;;;;20.40;41.00;;;;;;5094591;28;19916;-66
2022/01/18 10:24:17;;;;;;;;;;;20.40;41.00;;;;;;5093952;28;19958;-65
2022/01/18 10:26:43;;;;;;;;;;;20.40;40.90;;;;;;5075929;28;19915;-65
2022/01/18 10:29:10;;;;;;;;;;;20.40;41.00;;;;;;5075283;28;19999;-64
2022/01/18 10:31:55;;;;;;;;;;;20.40;41.00;;;;;;5093482;28;20344;-64
2022/01/18 10:34:42;;;;;;;;;;;20.40;41.00;;;;;;5093390;28;20372;-64
2022/01/18 10:37:13;;;;;;;;;;;20.40;41.00;;;;;;5075818;28;19908;-65
2022/01/18 10:39:43;;;;;;;;;;;20.30;41.00;;;;;;5093543;28;19912;-66
2022/01/18 10:42:21;;;;;;;;;;;20.30;41.10;;;;;;5093575;28;19915;-66
2022/01/18 10:44:48;;;;;;;;;;;20.30;41.10;;;;;;5075224;28;20398;-66
2022/01/18 10:47:15;;;;;;;;;;;20.30;41.10;;;;;;5093673;28;20396;-65
2022/01/18 10:49:44;;;;;;;;;;;20.40;41.00;;;;;;5093403;28;19912;-64
2022/01/18 10:52:10;;;;;;;;;;;20.40;41.00;;;;;;5092564;28;19965;-64
2022/01/18 10:54:38;;;;;;;;;;;20.40;41.10;;;;;;5087308;28;19920;-62
2022/01/18 10:57:06;;;;;;;;;;;20.40;41.00;;;;;;5073204;28;19912;-65
2022/01/18 10:59:32;;;;;;;;;;;20.40;41.10;;;;;;5080580;28;20394;-64
2022/01/18 11:02:17;;;;;;;;;;;20.40;41.00;;;;;;5071019;28;20012;-67
2022/01/18 11:04:45;;;;;;;;;;;20.40;40.90;;;;;;5086743;28;19920;-65
2022/01/18 11:07:11;;;;;;;;;;;20.40;41.00;;;;;;5092825;28;19955;-64
2022/01/18 11:09:37;;;;;;;;;;;20.40;41.10;;;;;;5091134;28;20452;-66
2022/01/18 11:12:04;;;;;;;;;;;20.40;41.00;;;;;;5091762;28;20006;-63
2022/01/18 11:14:31;;;;;;;;;;;20.50;41.10;;;;;;5091092;28;19912;-65
2022/01/18 11:16:58;;;;;;;;;;;20.40;41.00;;;;;;5088755;28;20318;-67
2022/01/18 11:21:51;;;;;;;;;;;20.40;41.10;;;;;;5079425;28;19947;-65
2022/01/18 11:24:17;;;;;;;;;;;20.40;41.20;;;;;;5060083;28;20311;-64
2022/01/18 11:26:44;;;;;;;;;;;20.40;41.20;;;;;;5075586;28;19995;-64
2022/01/18 11:29:10;;;;;;;;;;;20.40;41.00;;;;;;5059835;28;20267;-64
2022/01/18 11:31:36;;;;;;;;;;;20.40;41.20;;;;;;5074981;28;19969;-64
2022/01/18 11:34:03;;;;;;;;;;;20.40;41.10;;;;;;5080569;28;19916;-63
2022/01/18 11:36:32;;;;;;;;;;;20.40;41.20;;;;;;5091621;28;19916;-63
2022/01/18 11:39:01;;;;;;;;;;;20.40;41.20;;;;;;5090538;28;20023;-65
2022/01/18 11:41:31;;;;;;;;;;;20.40;41.10;;;;;;5089427;28;19961;-65
2022/01/18 11:43:59;;;;;;;;;;;20.50;41.00;;;;;;5072096;28;19924;-65
2022/01/18 11:46:32;;;;;;;;;;;20.40;41.10;;;;;;5065172;28;19916;-65
2022/01/18 11:49:08;;;;;;;;;;;20.50;41.00;;;;;;5073324;28;19951;-66
2022/01/18 11:51:38;;;;;;;;;;;20.40;41.20;;;;;;5087642;28;19916;-65
2022/01/18 11:55:06;;;;;;;;;;;20.50;41.10;;;;;;5071572;28;20050;-65
2022/01/18 11:57:15;;;;;;;;;;;20.50;41.00;;;;;;5078684;28;19942;-65
2022/01/18 11:59:41;;;;;;;;;;;20.40;41.10;;;;;;5079413;28;19963;-65
2022/01/18 12:02:07;;;;;;;;;;;20.50;41.20;;;;;;5078385;28;20042;-65
2022/01/18 12:04:40;;;;;;;;;;;20.50;41.10;;;;;;5091155;28;19920;-64
2022/01/18 12:07:06;;;;;;;;;;;20.40;41.20;;;;;;5090697;28;19912;-65
2022/01/18 12:09:41;;;;;;;;;;;20.40;41.30;;;;;;5092724;28;20024;-65
2022/01/18 12:12:25;;;;;;;;;;;20.40;41.20;;;;;;5092078;28;19954;-65
2022/01/18 12:14:51;;;;;;;;;;;20.40;41.20;;;;;;5074361;28;19916;-64
2022/01/18 12:17:16;;;;;;;;;;;20.40;41.30;;;;;;5056169;28;19912;-63
2022/01/18 12:19:44;;;;;;;;;;;20.40;41.20;;;;;;5081657;28;19941;-63
2022/01/18 12:22:10;;;;;;;;;;;20.40;41.10;;;;;;5087559;28;19916;-62
2022/01/18 12:24:36;;;;;;;;;;;20.40;41.10;;;;;;5087703;28;20503;-62
2022/01/18 12:27:19;;;;;;;;;;;20.50;41.40;;;;;;5088076;28;19957;-64
2022/01/18 12:30:14;;;;;;;;;;;20.40;41.30;;;;;;5074375;28;19966;-62
2022/01/18 12:32:56;;;;;;;;;;;20.50;41.30;;;;;;5087019;28;19915;-63
2022/01/18 12:35:23;;;;;;;;;;;20.50;41.30;;;;;;5087213;28;19920;-62
2022/01/18 12:37:49;;;;;;;;;;;20.40;41.30;;;;;;5091364;28;19915;-62
2022/01/18 12:40:27;;;;;;;;;;;20.50;41.30;;;;;;5086240;28;19912;-63
2022/01/18 12:45:30;;;;;;;;;;;20.50;41.30;;;;;;5094568;28;20026;-62
2022/01/18 12:47:59;;;;;;;;;;;20.50;41.30;;;;;;5092994;28;20031;-65
2022/01/18 12:50:30;;;;;;;;;;;20.50;41.30;;;;;;5094242;28;19912;-63
2022/01/18 12:53:16;;;;;;;;;;;20.50;41.30;;;;;;5090581;28;19917;-65
2022/01/18 12:55:45;;;;;;;;;;;20.50;41.30;;;;;;5087555;28;19957;-64
2022/01/18 12:58:20;;;;;;;;;;;20.60;41.20;;;;;;5082593;28;20316;-66
2022/01/18 13:00:47;;;;;;;;;;;20.50;41.20;;;;;;5060982;28;20390;-66
2022/01/18 13:03:20;;;;;;;;;;;20.50;41.20;;;;;;5090882;28;19916;-65
2022/01/18 13:05:46;;;;;;;;;;;20.50;41.30;;;;;;5089332;28;20019;-65
2022/01/18 13:08:13;;;;;;;;;;;20.50;41.30;;;;;;5090003;28;19920;-65
2022/01/18 13:10:43;;;;;;;;;;;20.50;41.30;;;;;;5078968;28;19912;-66
2022/01/18 13:13:11;;;;;;;;;;;20.50;41.30;;;;;;5074127;28;19995;-65
2022/01/18 13:15:51;;;;;;;;;;;20.50;41.30;;;;;;5092305;28;19920;-66
2022/01/18 13:24:01;;;;;;;;;;;20.50;41.40;;;;;;5059384;28;19920;-66
2022/01/18 13:26:32;;;;;;;;;;;20.50;41.40;;;;;;5077527;28;19916;-65
2022/01/18 13:29:18;;;;;;;;;;;20.50;41.30;;;;;;5078909;28;19919;-65
2022/01/18 13:31:46;;;;;;;;;;;20.40;41.30;;;;;;5094021;28;19908;-66
2022/01/18 13:34:14;;;;;;;;;;;20.40;41.50;;;;;;5081814;28;20012;-66
2022/01/18 13:36:50;;;;;;;;;;;20.40;41.50;;;;;;5091160;28;19908;-65
2022/01/18 13:39:25;;;;;;;;;;;20.40;41.50;;;;;;5092665;28;20363;-66
2022/01/18 13:41:51;;;;;;;;;;;20.40;41.40;;;;;;5082762;28;19917;-67
2022/01/18 13:44:16;;;;;;;;;;;20.40;41.40;;;;;;5072728;28;20426;-66
2022/01/18 13:46:42;;;;;;;;;;;20.40;41.40;;;;;;5057559;28;20023;-66
2022/01/18 13:49:09;;;;;;;;;;;20.40;41.40;;;;;;5094232;28;19969;-65
2022/01/18 13:51:35;;;;;;;;;;;20.40;41.30;;;;;;5094880;28;19912;-66
2022/01/18 13:54:06;;;;;;;;;;;20.40;41.30;;;;;;5086510;28;20082;-66
2022/01/18 13:56:32;;;;;;;;;;;20.40;41.30;;;;;;5076162;28;20003;-66
2022/01/18 13:59:08;;;;;;;;;;;20.40;41.30;;;;;;5081971;28;20425;-65
2022/01/18 14:01:34;;;;;;;;;;;20.40;41.30;;;;;;5057049;28;19920;-66
2022/01/18 14:04:02;;;;;;;;;;;20.40;41.30;;;;;;5087758;28;19920;-64
2022/01/18 14:06:35;;;;;;;;;;;20.50;41.30;;;;;;5093508;28;19935;-65
2022/01/18 14:09:00;;;;;;;;;;;20.50;41.10;;;;;;5094733;28;19912;-65
2022/01/18 14:11:29;;;;;;;;;;;20.40;41.30;;;;;;5095213;28;20329;-66
2022/01/18 14:13:55;;;;;;;;;;;20.40;41.20;;;;;;5095131;28;19942;-64
2022/01/18 14:16:25;;;;;;;;;;;20.40;41.20;;;;;;5094980;28;19908;-64
2022/01/18 14:18:51;;;;;;;;;;;20.40;41.20;;;;;;5094933;28;19908;-65
2022/01/18 14:21:24;;;;;;;;;;;20.40;41.30;;;;;;5094905;28;19965;-65
2022/01/18 14:23:49;;;;;;;;;;;20.40;41.20;;;;;;5094814;28;19916;-65
2022/01/18 14:26:18;;;;;;;;;;;20.40;41.30;;;;;;5094923;28;19942;-65
2022/01/18 14:28:44;;;;;;;;;;;20.40;41.20;;;;;;5094841;28;20284;-65
2022/01/18 14:31:09;;;;;;;;;;;20.40;41.20;;;;;;5094810;28;19908;-65
2022/01/18 14:33:35;;;;;;;;;;;20.40;41.20;;;;;;5076715;28;19908;-65
2022/01/18 14:36:00;;;;;;;;;;;20.40;41.20;;;;;;5094871;28;19908;-65
2022/01/18 14:38:27;;;;;;;;;;;20.40;41.20;;;;;;5076549;28;19938;-66
2022/01/18 14:40:54;;;;;;;;;;;20.40;41.20;;;;;;5076265;28;19909;-65
2022/01/18 14:43:28;;;;;;;;;;;20.40;41.20;;;;;;5094326;28;19912;-64
2022/01/18 14:48:22;;;;;;;;;;;20.40;41.20;;;;;;5094500;28;20356;-65
2022/01/18 14:50:48;;;;;;;;;;;20.40;41.20;;;;;;5076185;28;19915;-65
2022/01/18 14:53:13;;;;;;;;;;;20.40;41.10;;;;;;5094191;28;19991;-65
2022/01/18 14:55:39;;;;;;;;;;;20.40;41.10;;;;;;5094126;28;19908;-65
2022/01/18 14:58:05;;;;;;;;;;;20.40;41.20;;;;;;5094116;28;19908;-64
2022/01/18 15:00:31;;;;;;;;;;;20.50;41.00;;;;;;5093862;28;19926;-65
2022/01/18 15:02:57;;;;;;;;;;;20.50;41.00;;;;;;5088976;28;19925;-64
2022/01/18 15:05:24;;;;;;;;;;;20.50;40.90;;;;;;5058076;28;19912;-64
2022/01/18 15:07:49;;;;;;;;;;;20.50;40.90;;;;;;5090086;28;20013;-68
2022/01/18 15:10:15;;;;;;;;;;;20.50;41.10;;;;;;5088367;28;20403;-66
2022/01/18 15:12:44;;;;;;;;;;;20.40;41.20;;;;;;5086720;28;19917;-65
2022/01/18 15:15:10;;;;;;;;;;;20.40;41.20;;;;;;5084634;28;19916;-67
2022/01/18 15:17:36;;;;;;;;;;;20.40;41.20;;;;;;5083063;28;19926;-63
2022/01/18 15:20:02;;;;;;;;;;;20.40;41.20;;;;;;5085675;28;19912;-64
2022/01/18 15:22:27;;;;;;;;;;;20.40;41.30;;;;;;5084133;28;19920;-65
2022/01/18 15:24:53;;;;;;;;;;;20.50;41.20;;;;;;5084008;28;19916;-65
2022/01/18 15:27:18;;;;;;;;;;;20.60;41.20;;;;;;5064906;28;19917;-64
2022/01/18 15:29:47;;;;;;;;;;;20.50;41.20;;;;;;5083598;28;20334;-64
2022/01/18 15:32:13;;;;;;;;;;;20.50;41.30;;;;;;5085018;28;20417;-67
2022/01/18 15:34:38;;;;;;;;;;;20.50;41.30;;;;;;5083890;28;19912;-66
2022/01/18 15:37:04;;;;;;;;;;;20.50;41.30;;;;;;5082932;28;19931;-64
2022/01/18 15:39:31;;;;;;;;;;;20.50;41.40;;;;;;5085302;28;19931;-68
2022/01/18 15:41:57;;;;;;;;;;;20.50;41.50;;;;;;5084214;28;21442;-64
2022/01/18 15:44:22;;;;;;;;;;;20.50;41.40;;;;;;5085166;28;19924;-65
2022/01/18 15:46:48;;;;;;;;;;;20.50;41.50;;;;;;5067679;28;20389;-65
2022/01/18 15:49:13;;;;;;;;;;;20.50;41.50;;;;;;5083656;28;20361;-65